Flight Track Log - Related Links

Times and Time Zones

All times are in EDT time to prevent confusion due to time zone crossing. See the SWA558 flight status page for this flight to view local times or setup timezone preferences in your user account.

Time Position Orientation Groundspeed Altitude Reporting Facility
EDT Latitude Longitude Course Direction KTS MPH feet Rate Location/Type
Thu 04:10:22 PM 41.7500 -87.7833 219° Southwest 181 208 2,800  Level Chicago TRACON
Thu 04:12:36 PM 41.6331 -87.9083 219° Southwest 264 304 10,200 2,908 Climbing Chicago Center
Thu 04:13:38 PM 41.5744 -87.9775 221° Southwest 282 325 12,300 2,226 Climbing Chicago Center
Thu 04:14:40 PM 41.4994 -88.0517 217° Southwest 340 391 14,800 2,661 Climbing Chicago Center
Thu 04:15:42 PM 41.3936 -88.1094 202° Southwest 375 432 17,800 2,565 Climbing Chicago Center
Thu 04:16:44 PM 41.2881 -88.1633 201° Southwest 396 456 20,100 2,304 Climbing Chicago Center
Thu 04:17:47 PM 41.1786 -88.2219 202° Southwest 419 482 22,600 2,208 Climbing Chicago Center
Thu 04:18:49 PM 41.0636 -88.2822 202° Southwest 440 506 24,700 2,371 Climbing Chicago Center
Thu 04:19:51 PM 40.9217 -88.3558 201° Southwest 457 526 27,500 2,419 Climbing Chicago Center
Thu 04:20:53 PM 40.8042 -88.4161 201° Southwest 456 525 29,700 2,177 Climbing Chicago Center
Thu 04:21:55 PM 40.6881 -88.4764 201° Southwest 451 519 32,000 1,839 Climbing Chicago Center
Thu 04:22:57 PM 40.5758 -88.5417 204° Southwest 444 511 33,500 1,403 Climbing Chicago Center
Thu 04:23:59 PM 40.4897 -88.6422 222° Southwest 415 478 34,900 1,548 Climbing Chicago Center
Thu 04:25:01 PM 40.3975 -88.7456 220° Southwest 415 478 36,700 1,306 Climbing Chicago Center
Thu 04:26:03 PM 40.3119 -88.8464 222° Southwest 412 474 37,600 629 Climbing Chicago Center
Thu 04:27:05 PM 40.2256 -88.9453 221° Southwest 411 473 38,000 194 Climbing Chicago Center
Thu 04:28:07 PM 40.1222 -89.0644 221° Southwest 409 471 38,000  Level Chicago Center
Thu 04:29:02 PM 40.0522 -89.1439 221° Southwest 407 468 38,000  Level Kansas City Center
Thu 04:30:06 PM 39.9689 -89.2411 222° Southwest 404 465 38,000  Level Kansas City Center
Thu 04:31:06 PM 39.8833 -89.3378 221° Southwest 405 466 38,000  Level Kansas City Center
Thu 04:32:10 PM 39.7825 -89.4517 221° Southwest 400 460 38,000  Level Kansas City Center
Thu 04:33:11 PM 39.7044 -89.5422 222° Southwest 399 459 38,000  Level Kansas City Center
Thu 04:34:14 PM 39.6208 -89.6361 221° Southwest 397 457 38,000  Level Kansas City Center
Thu 04:35:16 PM 39.5372 -89.7300 221° Southwest 399 459 38,000  Level Kansas City Center
Thu 04:36:17 PM 39.4539 -89.8231 221° Southwest 396 456 38,000  Level Kansas City Center
Thu 04:37:21 PM 39.3553 -89.9344 221° Southwest 394 453 38,000  Level Kansas City Center
Thu 04:38:21 PM 39.2736 -90.0258 221° Southwest 391 450 38,000  Level Kansas City Center
Thu 04:39:23 PM 39.1925 -90.1161 221° Southwest 388 447 38,000  Level Kansas City Center
Thu 04:40:26 PM 39.1100 -90.2083 221° Southwest 391 450 38,000  Level Kansas City Center
Thu 04:41:27 PM 39.0281 -90.2994 221° Southwest 392 451 38,000  Level Kansas City Center
Thu 04:42:30 PM 38.9303 -90.4081 221° Southwest 392 451 38,000  Level Kansas City Center
Thu 04:43:31 PM 38.8553 -90.4894 220° Southwest 390 449 38,000  Level Kansas City Center
Thu 04:44:33 PM 38.7719 -90.5822 221° Southwest 393 452 38,000  Level Kansas City Center
Thu 04:45:37 PM 38.6750 -90.6961 223° Southwest 392 451 38,000  Level Kansas City Center
Thu 04:46:38 PM 38.5914 -90.7919 222° Southwest 390 449 38,000  Level Kansas City Center
Thu 04:47:41 PM 38.5119 -90.8833 222° Southwest 386 444 38,000  Level Kansas City Center
Thu 04:48:42 PM 38.4311 -90.9775 222° Southwest 390 449 38,000  Level Kansas City Center
Thu 04:49:45 PM 38.3508 -91.0678 221° Southwest 389 448 38,000 194 Level Kansas City Center
Thu 04:50:46 PM 38.2722 -91.1597 223° Southwest 388 447 38,400 590 Climbing Kansas City Center
Thu 04:51:47 PM 38.1917 -91.2506 222° Southwest 387 445 39,200 768 Climbing Kansas City Center
Thu 04:52:51 PM 38.0781 -91.3425 213° Southwest 400 460 40,000 387 Climbing Kansas City Center
Thu 04:53:51 PM 37.9781 -91.4186 211° Southwest 413 475 40,000  Level Kansas City Center
Thu 04:54:55 PM 37.8975 -91.5092 222° Southwest 388 447 40,000  Level Kansas City Center
Thu 04:55:55 PM 37.8178 -91.6022 223° Southwest 385 443 40,000  Level Kansas City Center
Thu 04:56:59 PM 37.7378 -91.6933 222° Southwest 384 442 40,000  Level Kansas City Center
Thu 04:57:59 PM 37.6581 -91.7858 223° Southwest 385 443 40,000  Level Kansas City Center
Thu 04:59:03 PM 37.5775 -91.8778 222° Southwest 385 443 40,000  Level Kansas City Center
Thu 05:00:04 PM 37.4975 -91.9697 222° Southwest 386 444 40,000  Level Kansas City Center
Thu 05:01:08 PM 37.4006 -92.0794 222° Southwest 387 445 40,000  Level Kansas City Center
Thu 05:02:09 PM 37.3211 -92.1697 222° Southwest 385 443 40,000  Level Kansas City Center
Thu 05:03:10 PM 37.2408 -92.2608 222° Southwest 385 443 40,000  Level Kansas City Center
Thu 05:04:13 PM 37.1611 -92.3511 222° Southwest 383 441 40,000  Level Kansas City Center
Thu 05:05:14 PM 37.0822 -92.4383 221° Southwest 379 436 40,000  Level Kansas City Center
Thu 05:06:18 PM 37.0031 -92.5269 222° Southwest 379 436 40,000  Level Kansas City Center
Thu 05:07:19 PM 36.9258 -92.6136 222° Southwest 375 432 40,000  Level Kansas City Center
Thu 05:08:20 PM 36.8325 -92.7161 221° Southwest 372 428 40,000  Level Kansas City Center
Thu 05:09:09 PM 36.7686 -92.7889 222° Southwest 378 435 40,000  Level Memphis Center
Thu 05:10:09 PM 36.6897 -92.8747 221° Southwest 378 435 40,000  Level Memphis Center
Thu 05:11:09 PM 36.6131 -92.9600 222° Southwest 372 428 40,000  Level Memphis Center
Thu 05:12:09 PM 36.5342 -93.0481 222° Southwest 372 428 40,000  Level Memphis Center
Thu 05:13:09 PM 36.4722 -93.1156 221° Southwest 372 428 40,000  Level Memphis Center
Thu 05:14:09 PM 36.3867 -93.2056 220° Southwest 372 428 40,000  Level Memphis Center
Thu 05:15:09 PM 36.3097 -93.2903 222° Southwest 367 422 40,000  Level Memphis Center
Thu 05:16:09 PM 36.2350 -93.3700 221° Southwest 367 422 40,000  Level Memphis Center
Thu 05:17:09 PM 36.1578 -93.4519 221° Southwest 367 422 40,000  Level Memphis Center
Thu 05:18:09 PM 36.0828 -93.5339 221° Southwest 367 422 40,000  Level Memphis Center
Thu 05:19:09 PM 36.0036 -93.6156 220° Southwest 367 422 40,000  Level Memphis Center
Thu 05:20:09 PM 35.9283 -93.6997 222° Southwest 367 422 40,000  Level Memphis Center
Thu 05:21:09 PM 35.8511 -93.7811 221° Southwest 367 422 40,000  Level Memphis Center
Thu 05:22:09 PM 35.7736 -93.8625 220° Southwest 367 422 40,000  Level Memphis Center
Thu 05:23:09 PM 35.6964 -93.9461 221° Southwest 367 422 40,000  Level Memphis Center
Thu 05:24:09 PM 35.6189 -94.0269 220° Southwest 367 422 40,000  Level Memphis Center
Thu 05:25:09 PM 35.5433 -94.1078 221° Southwest 367 422 40,000  Level Memphis Center
Thu 05:26:09 PM 35.4636 -94.1908 220° Southwest 372 428 40,000  Level Memphis Center
Thu 05:27:09 PM 35.3903 -94.2689 221° Southwest 372 428 40,000  Level Memphis Center
Thu 05:28:09 PM 35.3006 -94.3386 212° Southwest 377 434 40,000  Level Memphis Center
Thu 05:29:09 PM 35.2108 -94.4056 211° Southwest 382 440 40,000  Level Memphis Center
Thu 05:30:09 PM 35.1253 -94.4725 213° Southwest 382 440 40,000  Level Memphis Center
Thu 05:31:06 PM 35.0314 -94.5483 213° Southwest 383 441 40,000  Level Fort Worth Center
Thu 05:32:06 PM 34.9433 -94.6147 212° Southwest 383 441 40,000  Level Fort Worth Center
Thu 05:33:06 PM 34.8633 -94.6756 212° Southwest 383 441 40,000  Level Fort Worth Center
Thu 05:34:06 PM 34.7750 -94.7414 211° Southwest 377 434 40,000  Level Fort Worth Center
Thu 05:35:06 PM 34.6847 -94.8100 212° Southwest 382 440 40,000  Level Fort Worth Center
Thu 05:36:06 PM 34.5964 -94.8758 212° Southwest 382 440 40,000  Level Fort Worth Center
Thu 05:37:06 PM 34.5058 -94.9439 212° Southwest 382 440 40,000  Level Fort Worth Center
Thu 05:38:06 PM 34.4153 -95.0119 212° Southwest 387 445 40,000  Level Fort Worth Center
Thu 05:39:06 PM 34.3208 -95.0825 212° Southwest 387 445 40,000  Level Fort Worth Center
Thu 05:40:06 PM 34.2322 -95.1478 211° Southwest 387 445 40,000  Level Fort Worth Center
Thu 05:41:06 PM 34.1417 -95.2153 212° Southwest 387 445 40,000  Level Fort Worth Center
Thu 05:42:06 PM 34.0508 -95.2828 212° Southwest 382 440 40,000  Level Fort Worth Center
Thu 05:43:06 PM 33.9622 -95.3475 211° Southwest 382 440 40,000  Level Fort Worth Center
Thu 05:44:06 PM 33.8717 -95.4147 212° Southwest 382 440 40,000  Level Fort Worth Center
Thu 05:45:06 PM 33.7850 -95.4792 212° Southwest 382 440 40,000  Level Fort Worth Center
Thu 05:46:06 PM 33.6961 -95.5436 211° Southwest 382 440 40,000  Level Fort Worth Center
Thu 05:47:06 PM 33.6094 -95.6028 210° Southwest 377 434 40,000  Level Fort Worth Center
Thu 05:48:06 PM 33.5228 -95.6694 213° Southwest 377 434 40,000  Level Fort Worth Center
Thu 05:49:06 PM 33.4317 -95.7358 211° Southwest 382 440 40,000  Level Fort Worth Center
Thu 05:50:06 PM 33.3428 -95.7997 211° Southwest 382 440 40,000  Level Fort Worth Center
Thu 05:51:06 PM 33.2436 -95.8711 211° Southwest 382 440 40,000  Level Fort Worth Center
Thu 05:52:06 PM 33.1483 -95.9372 210° Southwest 382 440 40,000  Level Fort Worth Center
Thu 05:53:06 PM 33.0592 -96.0031 212° Southwest 382 440 40,000  Level Fort Worth Center
Thu 05:54:06 PM 32.9661 -96.0714 212° Southwest 387 445 40,000  Level Fort Worth Center
Thu 05:55:06 PM 32.8750 -96.1369 211° Southwest 387 445 40,000  Level Fort Worth Center
Thu 05:56:06 PM 32.7817 -96.2003 210° Southwest 395 455 40,000  Level Fort Worth Center
Thu 05:57:06 PM 32.6883 -96.2681 211° Southwest 395 455 40,000  Level Fort Worth Center
Thu 05:58:06 PM 32.5950 -96.3358 211° Southwest 395 455 40,000  Level Fort Worth Center
Thu 05:59:06 PM 32.5142 -96.3936 211° Southwest 389 448 40,000  Level Fort Worth Center
Thu 06:00:06 PM 32.4228 -96.4583 211° Southwest 389 448 40,000 -850 Level Fort Worth Center
Thu 06:01:06 PM 32.3272 -96.5208 209° Southwest 389 448 38,300 -1,300 Descending Fort Worth Center
Thu 06:02:06 PM 32.2314 -96.5833 209° Southwest 389 448 37,400 -900 Descending Fort Worth Center
Thu 06:03:06 PM 32.1317 -96.6431 207° Southwest 400 460 36,500 -950 Descending Fort Worth Center
Thu 06:04:06 PM 32.0214 -96.7100 207° Southwest 405 466 35,500 -1,000 Descending Fort Worth Center
Thu 06:05:06 PM 31.9236 -96.7769 210° Southwest 411 473 34,500 -1,000 Descending Fort Worth Center
Thu 06:06:06 PM 31.8153 -96.8414 207° Southwest 419 482 33,500 -950 Descending Fort Worth Center
Thu 06:07:06 PM 31.7156 -96.9031 208° Southwest 425 489 32,600 -1,087 Descending Fort Worth Center
Thu 06:08:13 PM 31.6108 -96.9647 207° Southwest 413 475 31,200 -1,674 Descending Houston Center
Thu 06:09:15 PM 31.5114 -97.0250 207° Southwest 401 461 29,000 -2,081 Descending Houston Center
Thu 06:10:17 PM 31.4103 -97.0867 208° Southwest 405 466 26,900 -2,419 Descending Houston Center
Thu 06:11:19 PM 31.2883 -97.1611 208° Southwest 419 482 24,000 -2,613 Descending Houston Center
Thu 06:12:21 PM 31.1856 -97.2189 206° Southwest 408 470 21,500 -2,226 Descending Houston Center
Thu 06:13:23 PM 31.0794 -97.2594 198° South 399 459 19,400 -2,081 Descending Houston Center
Thu 06:14:25 PM 30.9808 -97.2981 199° South 389 448 17,200 -2,758 Descending Houston Center
Thu 06:15:27 PM 30.8636 -97.3431 198° South 386 444 13,700 -2,928 Descending Houston Center
Thu 06:16:30 PM 30.7614 -97.3822 198° South 385 443 11,100 -1,776 Descending Houston Center
Thu 06:17:32 PM 30.6806 -97.4403 212° Southwest 345 397 10,000 -1,306 Descending Houston Center
Thu 06:18:34 PM 30.6150 -97.4917 214° Southwest 294 338 8,400 -1,839 Descending Houston Center
Thu 06:19:36 PM 30.5525 -97.5422 215° Southwest 276 318 6,200 -1,935 Descending Houston Center
Thu 06:20:38 PM 30.4842 -97.5739 202° Southwest 262 302 4,400 -1,403 Descending Houston Center
Thu 06:21:40 PM 30.4158 -97.6069 203° Southwest 262 302 3,300 -919 Descending Houston Center
Thu 06:22:42 PM 30.3414 -97.6436 203° Southwest 253 291 2,500 -774 Descending Houston Center

Login

Don't have an account? Register now (free) for customized features, flight alerts, and more!